Time,TemperatureF,DewpointF,PressureIn,WindDirection,WindDirectionDegrees,WindSpeedMPH,WindSpeedGustMPH,Humidity,HourlyPrecipIn,Conditions,Clouds,dailyrainin,SoftwareType,DateUTC
2013-05-10 00:04:00,53.3,46.6,29.81,North,0,0.0,0.0,78,0.00,,,0.00,WUHU216HW,2013-05-10 07:04:00,
2013-05-10 00:30:00,52.6,45.5,29.81,North,0,0.0,0.0,77,0.00,,,0.00,WUHU216HW,2013-05-10 07:30:00,
2013-05-10 00:35:00,52.6,45.5,29.81,North,0,0.0,0.0,77,0.00,,,0.00,WUHU216HW,2013-05-10 07:35:00,
2013-05-10 00:59:00,51.8,44.9,29.82,North,0,0.0,0.0,77,0.00,,,0.00,WUHU216HW,2013-05-10 07:59:00,
2013-05-10 01:04:00,51.8,44.9,29.82,North,0,0.0,0.0,77,0.00,,,0.00,WUHU216HW,2013-05-10 08:04:00,
2013-05-10 01:30:00,51.1,44.5,29.82,North,0,0.0,0.0,78,0.00,,,0.00,WUHU216HW,2013-05-10 08:30:00,
2013-05-10 01:35:00,51.1,44.5,29.82,North,0,0.0,0.0,78,0.00,,,0.00,WUHU216HW,2013-05-10 08:35:00,
2013-05-10 01:59:00,50.4,43.7,29.82,North,0,0.0,0.0,78,0.00,,,0.00,WUHU216HW,2013-05-10 08:59:00,
2013-05-10 02:04:00,50.4,43.7,29.82,North,0,0.0,0.0,78,0.00,,,0.00,WUHU216HW,2013-05-10 09:04:00,
2013-05-10 02:30:00,49.9,43.6,29.83,North,0,0.0,0.0,79,0.00,,,0.00,WUHU216HW,2013-05-10 09:30:00,
2013-05-10 02:35:00,49.9,43.6,29.83,North,0,0.0,0.0,79,0.00,,,0.00,WUHU216HW,2013-05-10 09:35:00,
2013-05-10 02:59:00,49.3,43.7,29.83,North,0,0.0,0.0,81,0.00,,,0.00,WUHU216HW,2013-05-10 09:59:00,
2013-05-10 03:04:00,49.3,43.7,29.83,North,0,0.0,0.0,81,0.00,,,0.00,WUHU216HW,2013-05-10 10:04:00,
2013-05-10 03:30:00,48.8,43.2,29.84,North,0,0.0,0.0,81,0.00,,,0.00,WUHU216HW,2013-05-10 10:30:00,
2013-05-10 03:35:00,48.8,43.2,29.84,North,0,0.0,0.0,81,0.00,,,0.00,WUHU216HW,2013-05-10 10:35:00,
2013-05-10 03:59:00,48.4,43.5,29.84,North,0,0.0,0.0,83,0.00,,,0.00,WUHU216HW,2013-05-10 10:59:00,
2013-05-10 04:04:00,48.4,43.5,29.84,North,0,0.0,0.0,83,0.00,,,0.00,WUHU216HW,2013-05-10 11:04:00,
2013-05-10 04:30:00,47.9,42.9,29.83,North,0,0.0,0.0,83,0.00,,,0.00,WUHU216HW,2013-05-10 11:30:00,
2013-05-10 04:35:00,47.9,42.9,29.83,North,0,0.0,0.0,83,0.00,,,0.00,WUHU216HW,2013-05-10 11:35:00,
2013-05-10 04:59:00,47.5,42.6,29.82,North,0,0.0,0.0,83,0.00,,,0.00,WUHU216HW,2013-05-10 11:59:00,
2013-05-10 05:04:00,47.5,42.6,29.82,North,0,0.0,0.0,83,0.00,,,0.00,WUHU216HW,2013-05-10 12:04:00,
2013-05-10 05:09:00,47.5,42.6,29.82,North,0,0.0,0.0,83,0.00,,,0.00,WUHU216HW,2013-05-10 12:09:00,
2013-05-10 05:30:00,47.0,42.1,29.81,North,0,0.0,0.0,83,0.00,,,0.00,WUHU216HW,2013-05-10 12:30:00,
2013-05-10 05:35:00,47.0,42.1,29.81,North,0,0.0,0.0,83,0.00,,,0.00,WUHU216HW,2013-05-10 12:35:00,
2013-05-10 05:59:00,46.8,42.6,29.81,North,0,0.0,0.0,85,0.00,,,0.00,WUHU216HW,2013-05-10 12:59:00,
2013-05-10 06:04:00,46.8,42.6,29.81,North,0,0.0,0.0,85,0.00,,,0.00,WUHU216HW,2013-05-10 13:04:00,
2013-05-10 06:09:00,46.8,42.6,29.81,North,0,0.0,0.0,85,0.00,,,0.00,WUHU216HW,2013-05-10 13:09:00,
2013-05-10 06:30:00,47.2,43.2,29.83,North,0,0.0,0.0,86,0.00,,,0.00,WUHU216HW,2013-05-10 13:30:00,
2013-05-10 06:35:00,47.2,43.2,29.83,North,0,0.0,0.0,86,0.00,,,0.00,WUHU216HW,2013-05-10 13:35:00,
2013-05-10 06:59:00,48.2,44.9,29.84,North,0,0.0,0.0,88,0.00,,,0.00,WUHU216HW,2013-05-10 13:59:00,
2013-05-10 07:04:00,48.2,44.9,29.84,North,0,0.0,0.0,88,0.00,,,0.00,WUHU216HW,2013-05-10 14:04:00,
2013-05-10 07:09:00,48.2,44.9,29.84,North,0,0.0,0.0,88,0.00,,,0.00,WUHU216HW,2013-05-10 14:09:00,
2013-05-10 07:30:00,50.4,47.3,29.84,North,0,0.0,0.0,89,0.00,,,0.00,WUHU216HW,2013-05-10 14:30:00,
2013-05-10 07:35:00,50.4,47.3,29.84,North,0,0.0,0.0,89,0.00,,,0.00,WUHU216HW,2013-05-10 14:35:00,
2013-05-10 07:59:00,53.6,50.5,29.84,North,0,0.0,0.0,89,0.00,,,0.00,WUHU216HW,2013-05-10 14:59:00,
2013-05-10 08:04:00,54.4,51.2,29.84,North,0,0.0,0.0,89,0.00,,,0.00,WUHU216HW,2013-05-10 15:04:00,
2013-05-10 08:09:00,54.4,51.2,29.84,North,0,0.0,0.0,89,0.00,,,0.00,WUHU216HW,2013-05-10 15:09:00,
2013-05-10 08:30:00,58.1,54.3,29.84,North,0,0.0,0.0,87,0.00,,,0.00,WUHU216HW,2013-05-10 15:30:00,
2013-05-10 08:35:00,58.1,54.3,29.84,North,0,0.0,0.0,87,0.00,,,0.00,WUHU216HW,2013-05-10 15:35:00,
2013-05-10 08:59:00,61.4,54.8,29.84,North,0,0.0,0.0,79,0.00,,,0.00,WUHU216HW,2013-05-10 15:59:00,
2013-05-10 09:04:00,61.4,54.8,29.84,North,0,0.0,0.0,79,0.00,,,0.00,WUHU216HW,2013-05-10 16:04:00,
2013-05-10 09:09:00,61.4,54.8,29.84,North,0,0.0,0.0,79,0.00,,,0.00,WUHU216HW,2013-05-10 16:09:00,
2013-05-10 09:30:00,64.3,55.8,29.84,North,0,0.0,0.0,74,0.00,,,0.00,WUHU216HW,2013-05-10 16:30:00,
2013-05-10 09:35:00,64.3,55.8,29.84,North,0,0.0,0.0,74,0.00,,,0.00,WUHU216HW,2013-05-10 16:35:00,
2013-05-10 09:59:00,66.4,55.9,29.83,North,0,0.0,0.0,69,0.00,,,0.00,WUHU216HW,2013-05-10 16:59:00,
2013-05-10 10:04:00,66.4,55.9,29.83,North,0,0.0,0.0,69,0.00,,,0.00,WUHU216HW,2013-05-10 17:04:00,
2013-05-10 10:30:00,68.9,56.7,29.83,North,0,0.0,0.0,65,0.00,,,0.00,WUHU216HW,2013-05-10 17:30:00,
2013-05-10 10:35:00,68.9,56.7,29.83,North,0,0.0,0.0,65,0.00,,,0.00,WUHU216HW,2013-05-10 17:35:00,
2013-05-10 10:59:00,70.9,57.7,29.84,North,0,0.0,0.0,63,0.00,,,0.00,WUHU216HW,2013-05-10 17:59:00,
2013-05-10 11:04:00,70.9,57.7,29.84,North,0,0.0,0.0,63,0.00,,,0.00,WUHU216HW,2013-05-10 18:04:00,
2013-05-10 11:30:00,72.4,57.7,29.84,North,0,0.0,0.0,60,0.00,,,0.00,WUHU216HW,2013-05-10 18:30:00,
2013-05-10 11:35:00,72.4,57.7,29.84,North,0,0.0,0.0,60,0.00,,,0.00,WUHU216HW,2013-05-10 18:35:00,
2013-05-10 11:59:00,73.6,57.9,29.83,North,0,0.0,0.0,58,0.00,,,0.00,WUHU216HW,2013-05-10 18:59:00,
2013-05-10 12:04:00,73.6,57.9,29.83,North,0,0.0,0.0,58,0.00,,,0.00,WUHU216HW,2013-05-10 19:04:00,
2013-05-10 12:30:00,74.9,56.6,29.82,North,0,0.0,0.0,53,0.00,,,0.00,WUHU216HW,2013-05-10 19:30:00,
2013-05-10 12:35:00,74.9,56.6,29.82,North,0,0.0,0.0,53,0.00,,,0.00,WUHU216HW,2013-05-10 19:35:00,
2013-05-10 12:59:00,76.1,56.8,29.82,North,0,0.0,0.0,51,0.00,,,0.00,WUHU216HW,2013-05-10 19:59:00,
2013-05-10 13:04:00,76.1,56.8,29.82,North,0,0.0,0.0,51,0.00,,,0.00,WUHU216HW,2013-05-10 20:04:00,
2013-05-10 13:09:00,76.1,56.8,29.82,North,0,0.0,0.0,51,0.00,,,0.00,WUHU216HW,2013-05-10 20:09:00,
2013-05-10 13:30:00,77.8,57.7,29.81,North,0,0.0,0.0,50,0.00,,,0.00,WUHU216HW,2013-05-10 20:30:00,
2013-05-10 13:35:00,77.8,57.7,29.81,North,0,0.0,0.0,50,0.00,,,0.00,WUHU216HW,2013-05-10 20:35:00,
2013-05-10 13:59:00,79.4,59.1,29.81,North,0,0.0,0.0,50,0.00,,,0.00,WUHU216HW,2013-05-10 20:59:00,
2013-05-10 14:04:00,79.4,59.1,29.81,North,0,0.0,0.0,50,0.00,,,0.00,WUHU216HW,2013-05-10 21:04:00,
2013-05-10 14:09:00,79.4,59.1,29.81,North,0,0.0,0.0,50,0.00,,,0.00,WUHU216HW,2013-05-10 21:09:00,
2013-05-10 14:30:00,80.1,57.3,29.81,North,0,0.0,0.0,46,0.00,,,0.00,WUHU216HW,2013-05-10 21:30:00,
2013-05-10 14:35:00,80.1,57.3,29.81,North,0,0.0,0.0,46,0.00,,,0.00,WUHU216HW,2013-05-10 21:35:00,
2013-05-10 14:59:00,80.5,56.4,29.81,North,0,0.0,0.0,44,0.00,,,0.00,WUHU216HW,2013-05-10 21:59:00,
2013-05-10 15:00:00,80.5,56.4,29.81,North,0,0.0,0.0,44,0.00,,,0.00,WUHU216HW,2013-05-10 22:00:00,
2013-05-10 15:05:00,80.5,56.4,29.81,North,0,0.0,0.0,44,0.00,,,0.00,WUHU216HW,2013-05-10 22:05:00,
2013-05-10 15:29:00,80.8,56.8,29.80,North,0,0.0,0.0,44,0.00,,,0.00,WUHU216HW,2013-05-10 22:29:00,
2013-05-10 15:35:00,80.8,56.8,29.80,North,0,0.0,0.0,44,0.00,,,0.00,WUHU216HW,2013-05-10 22:35:00,
2013-05-10 15:59:00,81.5,55.6,29.79,North,0,0.0,0.0,41,0.00,,,0.00,WUHU216HW,2013-05-10 22:59:00,
2013-05-10 16:04:00,81.5,55.6,29.79,North,0,0.0,0.0,41,0.00,,,0.00,WUHU216HW,2013-05-10 23:04:00,
2013-05-10 16:09:00,81.5,55.6,29.79,North,0,0.0,0.0,41,0.00,,,0.00,WUHU216HW,2013-05-10 23:09:00,
2013-05-10 16:30:00,81.0,56.3,29.79,North,0,0.0,0.0,43,0.00,,,0.00,WUHU216HW,2013-05-10 23:30:00,
2013-05-10 16:34:00,81.0,56.3,29.79,North,0,0.0,0.0,43,0.00,,,0.00,WUHU216HW,2013-05-10 23:34:00,
2013-05-10 16:59:00,80.5,54.6,29.78,North,0,0.0,0.0,41,0.00,,,0.00,WUHU216HW,2013-05-10 23:59:00,
2013-05-10 17:04:00,80.5,54.6,29.78,North,0,0.0,0.0,41,0.00,,,0.00,WUHU216HW,2013-05-11 00:04:00,
2013-05-10 17:09:00,80.5,54.6,29.78,North,0,0.0,0.0,41,0.00,,,0.00,WUHU216HW,2013-05-11 00:09:00,
2013-05-10 17:30:00,81.2,55.3,29.78,North,0,0.0,0.0,41,0.00,,,0.00,WUHU216HW,2013-05-11 00:30:00,
2013-05-10 17:35:00,81.2,55.3,29.78,North,0,0.0,0.0,41,0.00,,,0.00,WUHU216HW,2013-05-11 00:35:00,
2013-05-10 17:59:00,79.9,54.2,29.78,North,0,0.0,0.0,41,0.00,,,0.00,WUHU216HW,2013-05-11 00:59:00,
2013-05-10 18:04:00,79.9,54.2,29.78,North,0,0.0,0.0,41,0.00,,,0.00,WUHU216HW,2013-05-11 01:04:00,
2013-05-10 18:09:00,79.9,54.2,29.78,North,0,0.0,0.0,41,0.00,,,0.00,WUHU216HW,2013-05-11 01:09:00,
2013-05-10 18:30:00,79.0,55.2,29.78,North,0,0.0,0.0,44,0.00,,,0.00,WUHU216HW,2013-05-11 01:30:00,
2013-05-10 18:35:00,79.0,55.2,29.78,North,0,0.0,0.0,44,0.00,,,0.00,WUHU216HW,2013-05-11 01:35:00,
2013-05-10 18:59:00,77.6,57.0,29.78,North,0,0.0,0.0,49,0.00,,,0.00,WUHU216HW,2013-05-11 01:59:00,
2013-05-10 19:04:00,77.6,57.0,29.78,North,0,0.0,0.0,49,0.00,,,0.00,WUHU216HW,2013-05-11 02:04:00,
2013-05-10 19:09:00,77.6,57.0,29.78,North,0,0.0,0.0,49,0.00,,,0.00,WUHU216HW,2013-05-11 02:09:00,
2013-05-10 19:30:00,75.6,57.8,29.78,North,0,0.0,0.0,54,0.00,,,0.00,WUHU216HW,2013-05-11 02:30:00,
2013-05-10 19:35:00,75.6,57.8,29.78,North,0,0.0,0.0,54,0.00,,,0.00,WUHU216HW,2013-05-11 02:35:00,
2013-05-10 19:59:00,73.4,56.7,29.78,North,0,0.0,0.0,56,0.00,,,0.00,WUHU216HW,2013-05-11 02:59:00,
2013-05-10 20:04:00,73.4,56.7,29.78,North,0,0.0,0.0,56,0.00,,,0.00,WUHU216HW,2013-05-11 03:04:00,
2013-05-10 20:09:00,73.4,56.7,29.78,North,0,0.0,0.0,56,0.00,,,0.00,WUHU216HW,2013-05-11 03:09:00,
2013-05-10 20:30:00,71.1,56.1,29.78,North,0,0.0,0.0,59,0.00,,,0.00,WUHU216HW,2013-05-11 03:30:00,
2013-05-10 20:35:00,71.1,56.1,29.78,North,0,0.0,0.0,59,0.00,,,0.00,WUHU216HW,2013-05-11 03:35:00,
2013-05-10 21:05:00,68.6,54.6,29.79,North,0,0.0,0.0,61,0.00,,,0.00,WUHU216HW,2013-05-11 04:05:00,
2013-05-10 21:29:00,66.8,53.7,29.79,North,0,0.0,0.0,63,0.00,,,0.00,WUHU216HW,2013-05-11 04:29:00,
2013-05-10 21:30:00,66.8,53.7,29.79,North,0,0.0,0.0,63,0.00,,,0.00,WUHU216HW,2013-05-11 04:30:00,
2013-05-10 21:36:00,66.8,53.7,29.79,North,0,0.0,0.0,63,0.00,,,0.00,WUHU216HW,2013-05-11 04:36:00,
2013-05-10 21:59:00,65.3,53.3,29.80,North,0,0.0,0.0,65,0.00,,,0.00,WUHU216HW,2013-05-11 04:59:00,
2013-05-10 22:04:00,65.3,53.3,29.80,North,0,0.0,0.0,65,0.00,,,0.00,WUHU216HW,2013-05-11 05:04:00,
2013-05-10 22:09:00,65.3,53.3,29.80,North,0,0.0,0.0,65,0.00,,,0.00,WUHU216HW,2013-05-11 05:09:00,
2013-05-10 22:30:00,63.7,52.6,29.80,North,0,0.0,0.0,67,0.00,,,0.00,WUHU216HW,2013-05-11 05:30:00,
2013-05-10 22:35:00,63.7,52.6,29.80,North,0,0.0,0.0,67,0.00,,,0.00,WUHU216HW,2013-05-11 05:35:00,
2013-05-10 22:59:00,62.3,52.0,29.80,North,0,0.0,0.0,69,0.00,,,0.00,WUHU216HW,2013-05-11 05:59:00,
2013-05-10 23:04:00,62.3,52.0,29.80,North,0,0.0,0.0,69,0.00,,,0.00,WUHU216HW,2013-05-11 06:04:00,
2013-05-10 23:29:00,61.0,50.9,29.81,North,0,0.0,0.0,69,0.00,,,0.00,WUHU216HW,2013-05-11 06:29:00,
2013-05-10 23:34:00,61.0,50.9,29.81,North,0,0.0,0.0,69,0.00,,,0.00,WUHU216HW,2013-05-11 06:34:00,
2013-05-10 23:59:00,59.9,50.6,29.81,North,0,0.0,0.0,71,0.00,,,0.00,WUHU216HW,2013-05-11 06:59:00,